createdAt,value
2018-12-18T00:02:32.715Z,33.87
2018-12-18T00:05:12.622Z,35.10
2018-12-18T00:07:49.363Z,35.30
2018-12-18T00:10:20.716Z,35.93
2018-12-18T00:12:52.680Z,33.60
2018-12-18T00:15:24.881Z,35.17
2018-12-18T00:17:59.360Z,35.37
2018-12-18T00:20:37.460Z,35.40
2018-12-18T00:23:09.321Z,35.57
2018-12-18T00:25:48.060Z,34.43
2018-12-18T00:28:22.321Z,34.03
2018-12-18T00:30:56.744Z,33.50
2018-12-18T00:33:35.100Z,33.63
2018-12-18T00:36:10.241Z,33.67
2018-12-18T00:38:50.914Z,34.93
2018-12-18T00:41:25.714Z,34.70
2018-12-18T00:44:04.573Z,37.13
2018-12-18T00:46:36.474Z,33.53
2018-12-18T00:49:11.457Z,36.23
2018-12-18T00:51:45.498Z,35.00
2018-12-18T00:54:19.519Z,35.17
2018-12-18T00:56:53.419Z,33.70
2018-12-18T00:59:27.578Z,35.50
2018-12-18T01:05:00.140Z,33.43
2018-12-18T01:07:31.540Z,35.60
2018-12-18T01:10:07.050Z,34.00
2018-12-18T01:12:45.542Z,35.40
2018-12-18T01:15:17.060Z,33.00
2018-12-18T01:17:51.421Z,33.17
2018-12-18T01:20:23.062Z,32.33
2018-12-18T01:22:56.823Z,30.20
2018-12-18T01:25:31.201Z,32.90
2018-12-18T01:28:03.219Z,31.57
2018-12-18T01:30:35.119Z,32.60
2018-12-18T01:33:07.138Z,31.17
2018-12-18T01:35:45.825Z,33.47
2018-12-18T01:38:20.801Z,33.23
2018-12-18T01:40:55.418Z,30.13
2018-12-18T01:43:26.658Z,31.70
2018-12-18T01:46:02.539Z,32.80
2018-12-18T01:48:33.899Z,34.43
2018-12-18T01:51:05.639Z,35.17
2018-12-18T01:53:39.819Z,32.97
2018-12-18T01:56:11.181Z,31.70
2018-12-18T01:58:43.200Z,36.40
2018-12-18T02:01:15.019Z,37.57
2018-12-18T02:03:46.559Z,35.40
2018-12-18T02:06:20.902Z,30.40
2018-12-18T02:08:58.874Z,32.87
2018-12-18T02:11:32.734Z,39.23
2018-12-18T02:14:04.153Z,38.53
2018-12-18T02:16:44.775Z,34.63
2018-12-18T02:19:16.815Z,25.93
2018-12-18T02:21:48.435Z,26.57
2018-12-18T02:24:22.154Z,25.33
2018-12-18T02:26:55.994Z,28.73
2018-12-18T02:29:30.193Z,36.97
2018-12-18T02:32:01.266Z,30.47
2018-12-18T02:34:35.153Z,34.13
2018-12-18T02:37:06.536Z,31.27
2018-12-18T02:39:42.041Z,32.13
2018-12-18T02:42:19.721Z,28.87
2018-12-18T02:44:53.722Z,34.73
2018-12-18T02:47:29.539Z,34.70
2018-12-18T02:50:07.761Z,25.60
2018-12-18T02:52:39.727Z,26.63
2018-12-18T02:55:11.315Z,29.10
2018-12-18T02:57:43.321Z,32.37
2018-12-18T03:00:14.470Z,32.07
2018-12-18T03:02:45.978Z,30.83
2018-12-18T03:05:17.764Z,31.80
2018-12-18T03:07:54.019Z,34.70
2018-12-18T03:10:28.064Z,36.10
2018-12-18T03:13:01.821Z,37.33
2018-12-18T03:15:35.903Z,38.10
2018-12-18T03:18:09.864Z,33.60
2018-12-18T03:20:44.150Z,34.07
2018-12-18T03:23:17.981Z,32.17
2018-12-18T03:25:49.162Z,34.20
2018-12-18T03:28:23.522Z,32.80
2018-12-18T03:30:57.741Z,30.83
2018-12-18T03:33:32.062Z,29.67
2018-12-18T03:36:06.707Z,28.43
2018-12-18T03:38:38.241Z,28.93
2018-12-18T03:41:12.563Z,27.90
2018-12-18T03:43:44.164Z,26.97
2018-12-18T03:46:18.862Z,29.77
2018-12-18T03:48:53.950Z,30.17
2018-12-18T03:51:27.861Z,30.40
2018-12-18T03:54:02.563Z,32.50
2018-12-18T03:56:40.402Z,32.87
2018-12-18T03:59:12.002Z,32.80
2018-12-18T04:04:22.542Z,31.03
2018-12-18T04:06:54.663Z,31.53
2018-12-18T04:09:29.681Z,32.03
2018-12-18T04:12:09.305Z,33.53
2018-12-18T04:14:47.755Z,32.63
2018-12-18T04:17:19.435Z,31.53
2018-12-18T04:19:53.355Z,29.37
2018-12-18T04:22:27.258Z,29.33
2018-12-18T04:24:58.455Z,31.27
2018-12-18T04:27:32.133Z,31.93
2018-12-18T04:30:06.693Z,30.67
2018-12-18T04:32:40.875Z,31.57
2018-12-18T04:35:15.077Z,29.20
2018-12-18T04:37:49.094Z,30.33
2018-12-18T04:40:23.014Z,29.17
2018-12-18T04:42:56.854Z,28.27
2018-12-18T04:45:28.034Z,29.90
2018-12-18T04:48:09.256Z,28.30
2018-12-18T04:50:45.154Z,27.60
2018-12-18T04:53:20.914Z,29.87
2018-12-18T04:55:53.274Z,31.47
2018-12-18T04:58:27.654Z,27.73
2018-12-18T05:01:01.742Z,28.60
2018-12-18T05:03:32.917Z,27.73
2018-12-18T05:06:07.340Z,27.63
2018-12-18T05:08:41.918Z,27.70
2018-12-18T05:11:13.219Z,27.83
2018-12-18T05:13:47.838Z,28.40
2018-12-18T05:16:22.884Z,29.53
2018-12-18T05:18:54.085Z,33.70
2018-12-18T05:21:32.843Z,30.87
2018-12-18T05:24:09.385Z,31.33
2018-12-18T05:26:43.404Z,31.73
2018-12-18T05:29:26.108Z,33.13
2018-12-18T05:32:05.447Z,30.93
2018-12-18T05:34:36.544Z,31.63
2018-12-18T05:37:07.318Z,31.80
2018-12-18T05:39:41.365Z,31.13
2018-12-18T05:42:19.203Z,30.23
2018-12-18T05:44:50.404Z,31.87
2018-12-18T05:47:24.787Z,30.83
2018-12-18T05:49:59.064Z,30.57
2018-12-18T05:52:36.526Z,29.57
2018-12-18T05:55:10.488Z,31.87
2018-12-18T05:57:44.187Z,31.80
2018-12-18T06:00:15.105Z,33.03
2018-12-18T06:02:46.762Z,33.03
2018-12-18T06:05:19.042Z,31.97
2018-12-18T06:07:50.718Z,31.73
2018-12-18T06:10:24.498Z,36.53
2018-12-18T06:12:59.878Z,37.27
2018-12-18T06:15:34.171Z,36.40
2018-12-18T06:18:10.246Z,36.27
2018-12-18T06:20:45.469Z,37.73
2018-12-18T06:23:24.095Z,38.93
2018-12-18T06:25:55.477Z,38.43
2018-12-18T06:28:32.335Z,40.30
2018-12-18T06:31:06.635Z,37.27
2018-12-18T06:33:41.116Z,38.77
2018-12-18T06:36:15.675Z,40.30
2018-12-18T06:38:50.561Z,41.07
2018-12-18T06:41:24.777Z,40.70
2018-12-18T06:44:00.735Z,38.73
2018-12-18T06:46:35.395Z,38.93
2018-12-18T06:49:09.615Z,37.40
2018-12-18T06:51:43.674Z,37.90
2018-12-18T06:54:17.536Z,36.90
2018-12-18T06:56:48.816Z,38.90
2018-12-18T06:59:23.835Z,38.90
2018-12-18T07:01:58.080Z,39.20
2018-12-18T07:04:29.801Z,38.30
2018-12-18T07:07:01.719Z,37.60
2018-12-18T07:09:36.579Z,37.60
2018-12-18T07:12:11.517Z,37.87
2018-12-18T07:14:50.097Z,37.10
2018-12-18T07:17:24.618Z,37.53
2018-12-18T07:20:01.096Z,36.93
2018-12-18T07:22:35.196Z,37.57
2018-12-18T07:25:09.335Z,35.73
2018-12-18T07:27:40.478Z,38.00
2018-12-18T07:30:15.618Z,34.90
2018-12-18T07:32:52.421Z,33.83
2018-12-18T07:35:26.900Z,36.00
2018-12-18T07:38:00.976Z,36.10
2018-12-18T07:40:32.062Z,36.33
2018-12-18T07:43:06.759Z,35.27
2018-12-18T07:45:53.900Z,35.50
2018-12-18T07:48:25.256Z,35.10
2018-12-18T07:50:58.875Z,35.67
2018-12-18T07:53:32.836Z,34.27
2018-12-18T07:56:07.157Z,34.80
2018-12-18T07:58:40.939Z,36.13
2018-12-18T08:01:20.211Z,35.27
2018-12-18T08:03:52.362Z,29.30
2018-12-18T08:06:26.626Z,27.93
2018-12-18T08:09:00.643Z,27.03
2018-12-18T08:11:32.144Z,32.77
2018-12-18T08:14:06.660Z,33.97
2018-12-18T08:16:40.960Z,31.90
2018-12-18T08:19:14.959Z,32.80
2018-12-18T08:21:46.820Z,33.07
2018-12-18T08:24:21.380Z,32.60
2018-12-18T08:26:55.598Z,28.03
2018-12-18T08:29:26.556Z,31.13
2018-12-18T08:32:00.555Z,30.37
2018-12-18T08:34:31.757Z,29.33
2018-12-18T08:37:05.517Z,30.47
2018-12-18T08:39:39.076Z,32.00
2018-12-18T08:42:13.457Z,30.43
2018-12-18T08:44:44.918Z,30.43
2018-12-18T08:47:19.236Z,36.07
2018-12-18T08:49:53.176Z,37.03
2018-12-18T08:52:24.195Z,36.10
2018-12-18T08:54:58.876Z,36.90
2018-12-18T08:57:29.836Z,34.37
2018-12-18T09:00:04.136Z,36.27
2018-12-18T09:02:36.066Z,37.17
2018-12-18T09:05:07.886Z,36.40
2018-12-18T09:07:42.405Z,36.77
2018-12-18T09:10:14.444Z,32.17
2018-12-18T09:12:45.835Z,25.57
2018-12-18T09:15:25.335Z,26.37
2018-12-18T09:17:59.675Z,25.80
2018-12-18T09:20:31.335Z,24.57
2018-12-18T09:23:05.938Z,27.10
2018-12-18T09:25:40.121Z,25.47
2018-12-18T09:28:13.921Z,24.30
2018-12-18T09:30:47.679Z,22.23
2018-12-18T09:33:29.600Z,22.40
2018-12-18T09:36:03.659Z,20.93
2018-12-18T09:38:43.345Z,19.60
2018-12-18T09:41:23.501Z,20.13
2018-12-18T09:43:59.023Z,20.13
2018-12-18T09:46:31.020Z,20.43
2018-12-18T09:49:03.040Z,17.67
2018-12-18T09:51:37.260Z,19.80
2018-12-18T09:54:11.502Z,19.07
2018-12-18T09:56:50.926Z,27.80
2018-12-18T09:59:24.919Z,28.77
2018-12-18T10:02:00.326Z,30.10
2018-12-18T10:04:32.526Z,29.53
2018-12-18T10:07:03.735Z,27.37
2018-12-18T10:09:37.946Z,27.83
2018-12-18T10:12:12.155Z,21.43
2018-12-18T10:14:46.368Z,22.20
2018-12-18T10:17:20.365Z,24.23
2018-12-18T10:19:52.045Z,25.63
2018-12-18T10:22:26.507Z,25.00
2018-12-18T10:25:00.786Z,24.10
2018-12-18T10:27:35.267Z,24.60
2018-12-18T10:30:10.979Z,22.77
2018-12-18T10:32:42.565Z,21.67
2018-12-18T10:35:17.427Z,21.63
2018-12-18T10:37:51.667Z,19.83
2018-12-18T10:40:25.527Z,20.33
2018-12-18T10:42:59.213Z,18.43
2018-12-18T10:45:34.606Z,17.37
2018-12-18T10:48:11.208Z,19.13
2018-12-18T10:50:43.207Z,21.13
2018-12-18T10:53:17.447Z,19.67
2018-12-18T10:55:48.947Z,15.40
2018-12-18T10:58:24.173Z,18.43
2018-12-18T11:01:04.852Z,20.80
2018-12-18T11:03:39.501Z,25.33
2018-12-18T11:06:10.841Z,25.77
2018-12-18T11:08:51.762Z,26.73
2018-12-18T11:11:26.764Z,27.73
2018-12-18T11:13:58.482Z,25.70
2018-12-18T11:16:29.461Z,25.77
2018-12-18T11:19:07.182Z,25.43
2018-12-18T11:21:41.440Z,26.50
2018-12-18T11:24:15.921Z,26.20
2018-12-18T11:26:50.221Z,27.93
2018-12-18T11:29:28.200Z,28.90
2018-12-18T11:32:02.382Z,28.73
2018-12-18T11:34:36.082Z,28.67
2018-12-18T11:37:09.743Z,28.50
2018-12-18T11:39:43.661Z,26.37
2018-12-18T11:42:17.523Z,26.73
2018-12-18T11:44:48.742Z,28.90
2018-12-18T11:47:20.621Z,29.23
2018-12-18T11:49:54.559Z,27.63
2018-12-18T11:52:28.462Z,27.03
2018-12-18T11:55:03.003Z,27.20
2018-12-18T11:57:37.860Z,23.40
2018-12-18T12:00:12.682Z,22.20
2018-12-18T12:02:44.112Z,22.27
2018-12-18T12:05:16.082Z,23.10
2018-12-18T12:07:56.463Z,27.07
2018-12-18T12:10:30.700Z,29.27
2018-12-18T12:13:02.023Z,27.07
2018-12-18T12:15:37.919Z,29.90
2018-12-18T12:18:11.821Z,30.00
2018-12-18T12:20:45.843Z,31.53
2018-12-18T12:23:20.000Z,29.17
2018-12-18T12:25:55.601Z,29.23
2018-12-18T12:28:29.481Z,28.43
2018-12-18T12:31:00.741Z,29.10
2018-12-18T12:33:35.324Z,28.30
2018-12-18T12:36:09.061Z,27.80
2018-12-18T12:38:43.502Z,28.33
2018-12-18T12:41:17.662Z,28.80
2018-12-18T12:43:52.241Z,27.50
2018-12-18T12:46:26.559Z,27.33
2018-12-18T12:49:02.725Z,26.10
2018-12-18T12:51:36.480Z,26.83
2018-12-18T12:54:10.540Z,28.03
2018-12-18T12:56:44.142Z,26.10
2018-12-18T12:59:15.355Z,25.60
2018-12-18T13:01:46.257Z,25.40
2018-12-18T13:04:20.057Z,23.63
2018-12-18T13:06:54.077Z,24.07
2018-12-18T13:09:25.438Z,24.60
2018-12-18T13:11:57.418Z,22.93
2018-12-18T13:14:31.657Z,26.67
2018-12-18T13:17:02.738Z,25.90
2018-12-18T13:19:34.258Z,26.80
2018-12-18T13:22:08.717Z,25.77
2018-12-18T13:24:43.498Z,24.37
2018-12-18T13:27:17.759Z,25.80
2018-12-18T13:29:52.658Z,22.43
2018-12-18T13:32:26.879Z,20.83
2018-12-18T13:34:58.259Z,17.83
2018-12-18T13:37:29.677Z,19.97
2018-12-18T13:40:01.617Z,21.73
2018-12-18T13:42:35.198Z,24.37
2018-12-18T13:45:06.878Z,24.23
2018-12-18T13:47:41.218Z,25.43
2018-12-18T13:50:12.719Z,24.97
2018-12-18T13:52:47.157Z,26.70
2018-12-18T13:55:21.218Z,26.63
2018-12-18T13:57:59.798Z,26.07
2018-12-18T14:00:34.248Z,27.53
2018-12-18T14:03:07.949Z,27.40
2018-12-18T14:05:39.801Z,28.77
2018-12-18T14:08:11.200Z,28.37
2018-12-18T14:10:43.203Z,27.77
2018-12-18T14:13:17.661Z,28.87
2018-12-18T14:15:51.661Z,27.67
2018-12-18T14:18:25.400Z,28.40
2018-12-18T14:21:03.222Z,28.03
2018-12-18T14:23:37.001Z,26.60
2018-12-18T14:26:12.460Z,25.63
2018-12-18T14:28:47.020Z,26.33
2018-12-18T14:31:20.582Z,26.47
2018-12-18T14:33:52.061Z,27.47
2018-12-18T14:36:25.881Z,27.83
2018-12-18T14:38:57.141Z,27.60
2018-12-18T14:41:28.622Z,30.63
2018-12-18T14:43:59.982Z,29.27
2018-12-18T14:46:34.543Z,29.40
2018-12-18T14:49:12.341Z,31.73
2018-12-18T14:51:46.542Z,29.23
2018-12-18T14:54:21.502Z,30.33
2018-12-18T14:56:55.986Z,32.10
2018-12-18T14:59:36.301Z,30.57
2018-12-18T15:02:10.557Z,31.37
2018-12-18T15:04:44.258Z,28.20
2018-12-18T15:07:18.197Z,22.10
2018-12-18T15:09:52.317Z,19.57
2018-12-18T15:12:26.218Z,18.67
2018-12-18T15:15:01.140Z,19.17
2018-12-18T15:17:33.097Z,18.43
2018-12-18T15:20:09.257Z,18.13
2018-12-18T15:22:43.439Z,18.33
2018-12-18T15:25:14.856Z,24.97
2018-12-18T15:27:51.058Z,25.73
2018-12-18T15:30:26.107Z,29.73
2018-12-18T15:33:01.323Z,28.90
2018-12-18T15:35:37.937Z,30.10
2018-12-18T15:38:15.756Z,30.73
2018-12-18T15:40:49.918Z,29.30
2018-12-18T15:43:21.057Z,30.17
2018-12-18T15:45:57.457Z,31.30
2018-12-18T15:48:28.976Z,28.33
2018-12-18T15:51:08.595Z,29.00
2018-12-18T15:56:27.835Z,25.63
2018-12-18T15:59:02.074Z,36.07
2018-12-18T16:01:38.879Z,31.30
2018-12-18T16:04:12.819Z,29.07
2018-12-18T16:06:46.600Z,28.27
2018-12-18T16:09:20.940Z,25.53
2018-12-18T16:11:55.520Z,22.90
2018-12-18T16:14:30.059Z,22.67
2018-12-18T16:17:04.942Z,26.93
2018-12-18T16:19:38.919Z,24.83
2018-12-18T16:22:10.020Z,25.03
2018-12-18T16:24:50.481Z,28.70
2018-12-18T16:27:28.920Z,18.97
2018-12-18T16:30:02.650Z,17.17
2018-12-18T16:32:36.739Z,16.03
2018-12-18T16:35:10.360Z,17.10
2018-12-18T16:37:44.482Z,15.13
2018-12-18T16:43:00.642Z,14.40
2018-12-18T16:45:31.439Z,13.30
2018-12-18T16:48:02.941Z,13.53
2018-12-18T16:50:34.896Z,15.17
2018-12-18T16:53:06.755Z,18.53
2018-12-18T16:55:40.495Z,18.67
2018-12-18T16:58:11.575Z,15.20
2018-12-18T17:00:45.443Z,14.53
2018-12-18T17:03:19.281Z,13.97
2018-12-18T17:05:50.726Z,17.13
2018-12-18T17:08:24.942Z,16.47
2018-12-18T17:10:58.556Z,17.70
2018-12-18T17:13:33.036Z,24.33
2018-12-18T17:16:05.095Z,18.70
2018-12-18T17:18:37.434Z,17.03
2018-12-18T17:21:11.555Z,18.57
2018-12-18T17:23:43.379Z,18.83
2018-12-18T17:26:17.696Z,21.27
2018-12-18T17:28:49.658Z,22.73
2018-12-18T17:31:24.257Z,25.27
2018-12-18T17:33:58.356Z,27.03
2018-12-18T17:36:32.575Z,25.53
2018-12-18T17:39:06.918Z,27.97
2018-12-18T17:41:45.277Z,30.50
2018-12-18T17:44:19.398Z,28.83
2018-12-18T17:47:00.196Z,27.30
2018-12-18T17:49:31.798Z,27.27
2018-12-18T17:52:06.316Z,26.97
2018-12-18T17:54:44.517Z,24.67
2018-12-18T17:57:20.658Z,21.77
2018-12-18T17:59:52.317Z,21.43
2018-12-18T18:02:26.038Z,22.47
2018-12-18T18:05:00.148Z,22.73
2018-12-18T18:07:33.728Z,24.03
2018-12-18T18:10:08.535Z,21.87
2018-12-18T18:12:42.715Z,22.13
2018-12-18T18:15:16.696Z,22.63
2018-12-18T18:17:51.215Z,21.87
2018-12-18T18:20:22.736Z,23.03
2018-12-18T18:22:53.933Z,29.80
2018-12-18T18:25:28.939Z,26.53
2018-12-18T18:28:07.463Z,25.03
2018-12-18T18:30:41.477Z,24.90
2018-12-18T18:33:16.175Z,27.77
2018-12-18T18:35:52.019Z,33.17
2018-12-18T18:38:23.555Z,33.80
2018-12-18T18:41:03.984Z,31.50
2018-12-18T18:43:35.347Z,27.57
2018-12-18T18:46:06.704Z,30.07
2018-12-18T18:48:41.584Z,29.73
2018-12-18T18:51:15.325Z,32.67
2018-12-18T18:53:46.405Z,33.83
2018-12-18T18:56:17.846Z,30.87
2018-12-18T18:58:49.164Z,32.07
2018-12-18T19:01:20.282Z,29.10
2018-12-18T19:03:54.947Z,32.53
2018-12-18T19:06:29.210Z,28.80
2018-12-18T19:09:05.280Z,27.80
2018-12-18T19:11:37.281Z,26.03
2018-12-18T19:14:15.604Z,27.60
2018-12-18T19:16:47.422Z,28.10
2018-12-18T19:19:21.609Z,27.30
2018-12-18T19:21:56.479Z,28.77
2018-12-18T19:24:30.261Z,29.87
2018-12-18T19:27:04.704Z,28.87
2018-12-18T19:32:16.902Z,31.60
2018-12-18T19:34:50.642Z,29.40
2018-12-18T19:37:22.542Z,31.30
2018-12-18T19:39:56.981Z,33.77
2018-12-18T19:42:30.788Z,32.00
2018-12-18T19:45:04.957Z,31.60
2018-12-18T19:47:42.722Z,33.80
2018-12-18T19:50:18.565Z,32.97
2018-12-18T19:52:52.799Z,32.70
2018-12-18T19:55:26.741Z,32.50
2018-12-18T20:00:45.720Z,32.90
2018-12-18T20:03:24.978Z,31.83
2018-12-18T20:05:56.362Z,33.80
2018-12-18T20:08:28.663Z,32.27
2018-12-18T20:11:02.937Z,33.37
2018-12-18T20:13:39.499Z,31.43
2018-12-18T20:16:19.141Z,32.23
2018-12-18T20:18:53.564Z,31.47
2018-12-18T20:21:29.795Z,31.37
2018-12-18T20:24:11.847Z,32.57
2018-12-18T20:26:50.855Z,32.80
2018-12-18T20:29:22.114Z,34.37
2018-12-18T20:31:57.855Z,34.63
2018-12-18T20:34:36.598Z,36.13
2018-12-18T20:37:10.981Z,33.83
2018-12-18T20:39:44.901Z,33.77
2018-12-18T20:42:16.322Z,34.33
2018-12-18T20:44:50.363Z,35.23
2018-12-18T20:47:24.361Z,34.17
2018-12-18T20:49:58.404Z,33.47
2018-12-18T20:52:32.404Z,32.87
2018-12-18T20:55:06.414Z,32.10
2018-12-18T20:57:37.875Z,31.47
2018-12-18T21:00:13.409Z,30.83
2018-12-18T21:02:45.003Z,31.80
2018-12-18T21:05:19.642Z,33.23
2018-12-18T21:07:54.772Z,32.67
2018-12-18T21:10:29.459Z,33.47
2018-12-18T21:13:09.841Z,33.53
2018-12-18T21:15:44.034Z,34.83
2018-12-18T21:18:14.967Z,33.30
2018-12-18T21:20:53.743Z,35.43
2018-12-18T21:23:25.447Z,33.47
2018-12-18T21:26:00.977Z,32.87
2018-12-18T21:28:41.406Z,32.27
2018-12-18T21:31:15.990Z,33.30
2018-12-18T21:33:51.507Z,33.43
2018-12-18T21:36:22.654Z,31.50
2018-12-18T21:38:53.604Z,32.93
2018-12-18T21:41:27.095Z,31.77
2018-12-18T21:44:02.671Z,33.90
2018-12-18T21:46:37.642Z,34.57
2018-12-18T21:49:11.489Z,33.87
2018-12-18T21:51:42.886Z,32.47
2018-12-18T21:54:20.425Z,33.07
2018-12-18T21:56:59.386Z,33.17
2018-12-18T21:59:33.449Z,34.43
2018-12-18T22:02:07.605Z,33.63
2018-12-18T22:04:41.174Z,34.57
2018-12-18T22:07:15.516Z,35.60
2018-12-18T22:09:46.757Z,33.83
2018-12-18T22:12:22.097Z,33.77
2018-12-18T22:14:56.217Z,32.10
2018-12-18T22:17:30.718Z,32.50
2018-12-18T22:20:05.195Z,30.97
2018-12-18T22:22:40.919Z,30.57
2018-12-18T22:25:15.976Z,30.13
2018-12-18T22:27:48.794Z,32.37
2018-12-18T22:30:27.235Z,32.47
2018-12-18T22:33:02.076Z,33.33
2018-12-18T22:35:34.374Z,33.23
2018-12-18T22:38:09.815Z,33.83
2018-12-18T22:40:44.195Z,32.73
2018-12-18T22:43:16.134Z,34.17
2018-12-18T22:45:48.174Z,33.27
2018-12-18T22:48:19.854Z,32.43
2018-12-18T22:50:54.715Z,33.47
2018-12-18T22:53:30.894Z,32.60
2018-12-18T22:56:06.433Z,38.80
2018-12-18T22:58:41.655Z,39.47
2018-12-18T23:01:17.940Z,38.87
2018-12-18T23:03:52.353Z,38.47
2018-12-18T23:06:26.395Z,38.03
2018-12-18T23:09:00.773Z,38.80
2018-12-18T23:11:36.373Z,38.53
2018-12-18T23:14:11.535Z,37.17
2018-12-18T23:16:50.557Z,37.87
2018-12-18T23:19:25.458Z,42.57
2018-12-18T23:24:38.178Z,42.53
2018-12-18T23:27:11.938Z,39.43
2018-12-18T23:29:45.678Z,43.90
2018-12-18T23:32:16.979Z,42.27
2018-12-18T23:34:48.659Z,44.83
2018-12-18T23:37:22.541Z,45.40
2018-12-18T23:39:56.479Z,41.73
2018-12-18T23:42:36.098Z,36.37
2018-12-18T23:45:10.014Z,35.57
2018-12-18T23:47:41.160Z,35.20
2018-12-18T23:50:19.180Z,39.20
2018-12-18T23:52:51.067Z,42.23
2018-12-18T23:55:24.878Z,39.43
2018-12-18T23:57:59.567Z,39.77
